sensor_id;sensor_type;location;lat;lon;timestamp;temperature;humidity
30280;DHT22;17097;50.916;5.344;2023-06-14T00:01:41;22.60;64.90
30280;DHT22;17097;50.916;5.344;2023-06-14T00:04:11;22.50;65.30
30280;DHT22;17097;50.916;5.344;2023-06-14T00:06:36;22.50;65.40
30280;DHT22;17097;50.916;5.344;2023-06-14T00:09:06;22.50;65.20
30280;DHT22;17097;50.916;5.344;2023-06-14T00:11:34;22.40;65.80
30280;DHT22;17097;50.916;5.344;2023-06-14T00:14:00;22.50;65.60
30280;DHT22;17097;50.916;5.344;2023-06-14T00:16:25;22.50;65.30
30280;DHT22;17097;50.916;5.344;2023-06-14T00:18:51;22.40;65.30
30280;DHT22;17097;50.916;5.344;2023-06-14T00:21:18;22.40;65.70
30280;DHT22;17097;50.916;5.344;2023-06-14T00:23:44;22.40;65.90
30280;DHT22;17097;50.916;5.344;2023-06-14T00:26:10;22.40;66.20
30280;DHT22;17097;50.916;5.344;2023-06-14T00:28:36;22.30;66.50
30280;DHT22;17097;50.916;5.344;2023-06-14T00:31:04;22.30;66.40
30280;DHT22;17097;50.916;5.344;2023-06-14T00:33:29;22.30;66.60
30280;DHT22;17097;50.916;5.344;2023-06-14T00:35:58;22.20;66.80
30280;DHT22;17097;50.916;5.344;2023-06-14T00:38:25;22.20;67.10
30280;DHT22;17097;50.916;5.344;2023-06-14T00:40:54;22.20;66.90
30280;DHT22;17097;50.916;5.344;2023-06-14T00:43:20;22.10;67.20
30280;DHT22;17097;50.916;5.344;2023-06-14T00:45:45;22.10;67.50
30280;DHT22;17097;50.916;5.344;2023-06-14T00:48:15;22.10;67.70
30280;DHT22;17097;50.916;5.344;2023-06-14T00:50:41;22.10;67.90
30280;DHT22;17097;50.916;5.344;2023-06-14T00:53:11;22.00;68.30
30280;DHT22;17097;50.916;5.344;2023-06-14T00:55:38;22.00;68.60
30280;DHT22;17097;50.916;5.344;2023-06-14T00:58:03;22.00;69.20
30280;DHT22;17097;50.916;5.344;2023-06-14T01:00:29;21.90;69.40
30280;DHT22;17097;50.916;5.344;2023-06-14T01:02:58;21.90;69.80
30280;DHT22;17097;50.916;5.344;2023-06-14T01:05:24;21.80;70.00
30280;DHT22;17097;50.916;5.344;2023-06-14T01:08:24;21.80;71.00
30280;DHT22;17097;50.916;5.344;2023-06-14T01:11:07;21.80;70.60
30280;DHT22;17097;50.916;5.344;2023-06-14T01:13:40;21.70;70.90
30280;DHT22;17097;50.916;5.344;2023-06-14T01:16:08;21.70;71.20
30280;DHT22;17097;50.916;5.344;2023-06-14T01:18:34;21.60;71.60
30280;DHT22;17097;50.916;5.344;2023-06-14T01:21:01;21.60;72.00
30280;DHT22;17097;50.916;5.344;2023-06-14T01:23:31;21.60;71.90
30280;DHT22;17097;50.916;5.344;2023-06-14T01:26:01;21.60;72.10
30280;DHT22;17097;50.916;5.344;2023-06-14T01:28:28;21.50;72.50
30280;DHT22;17097;50.916;5.344;2023-06-14T01:31:00;21.60;72.80
30280;DHT22;17097;50.916;5.344;2023-06-14T01:33:31;21.50;73.10
30280;DHT22;17097;50.916;5.344;2023-06-14T01:35:58;21.50;73.20
30280;DHT22;17097;50.916;5.344;2023-06-14T01:38:25;21.60;72.90
30280;DHT22;17097;50.916;5.344;2023-06-14T01:40:52;21.50;73.20
30280;DHT22;17097;50.916;5.344;2023-06-14T01:43:20;21.40;74.00
30280;DHT22;17097;50.916;5.344;2023-06-14T01:45:47;21.30;74.60
30280;DHT22;17097;50.916;5.344;2023-06-14T01:48:14;21.30;75.10
30280;DHT22;17097;50.916;5.344;2023-06-14T01:50:41;21.20;75.30
30280;DHT22;17097;50.916;5.344;2023-06-14T01:53:08;21.20;75.80
30280;DHT22;17097;50.916;5.344;2023-06-14T01:55:34;21.20;76.10
30280;DHT22;17097;50.916;5.344;2023-06-14T01:58:05;21.10;76.20
30280;DHT22;17097;50.916;5.344;2023-06-14T02:00:31;21.10;76.90
30280;DHT22;17097;50.916;5.344;2023-06-14T02:02:57;21.00;77.40
30280;DHT22;17097;50.916;5.344;2023-06-14T02:05:25;21.10;77.40
30280;DHT22;17097;50.916;5.344;2023-06-14T02:07:52;21.10;77.70
30280;DHT22;17097;50.916;5.344;2023-06-14T02:10:19;21.00;77.90
30280;DHT22;17097;50.916;5.344;2023-06-14T02:12:45;21.00;78.70
30280;DHT22;17097;50.916;5.344;2023-06-14T02:15:11;20.90;79.80
30280;DHT22;17097;50.916;5.344;2023-06-14T02:17:45;20.90;79.80
30280;DHT22;17097;50.916;5.344;2023-06-14T02:20:12;20.90;80.10
30280;DHT22;17097;50.916;5.344;2023-06-14T02:22:41;20.80;81.00
30280;DHT22;17097;50.916;5.344;2023-06-14T02:25:07;20.80;81.20
30280;DHT22;17097;50.916;5.344;2023-06-14T02:27:34;20.80;81.60
30280;DHT22;17097;50.916;5.344;2023-06-14T02:30:00;20.80;82.40
30280;DHT22;17097;50.916;5.344;2023-06-14T02:32:27;20.80;82.20
30280;DHT22;17097;50.916;5.344;2023-06-14T02:34:53;20.70;82.40
30280;DHT22;17097;50.916;5.344;2023-06-14T02:37:20;20.70;83.10
30280;DHT22;17097;50.916;5.344;2023-06-14T02:39:45;20.60;83.50
30280;DHT22;17097;50.916;5.344;2023-06-14T02:42:11;20.60;84.80
30280;DHT22;17097;50.916;5.344;2023-06-14T02:44:40;20.60;85.00
30280;DHT22;17097;50.916;5.344;2023-06-14T02:47:06;20.60;85.90
30280;DHT22;17097;50.916;5.344;2023-06-14T02:49:34;20.50;85.90
30280;DHT22;17097;50.916;5.344;2023-06-14T02:52:03;20.50;86.80
30280;DHT22;17097;50.916;5.344;2023-06-14T02:54:34;20.50;88.00
30280;DHT22;17097;50.916;5.344;2023-06-14T02:57:00;20.40;89.00
30280;DHT22;17097;50.916;5.344;2023-06-14T02:59:28;20.40;89.50
30280;DHT22;17097;50.916;5.344;2023-06-14T03:01:54;20.40;89.70
30280;DHT22;17097;50.916;5.344;2023-06-14T03:04:21;20.30;90.00
30280;DHT22;17097;50.916;5.344;2023-06-14T03:06:48;20.30;90.30
30280;DHT22;17097;50.916;5.344;2023-06-14T03:09:16;20.20;90.70
30280;DHT22;17097;50.916;5.344;2023-06-14T03:11:42;20.20;91.10
30280;DHT22;17097;50.916;5.344;2023-06-14T03:14:09;20.20;91.60
30280;DHT22;17097;50.916;5.344;2023-06-14T03:16:37;20.10;92.30
30280;DHT22;17097;50.916;5.344;2023-06-14T03:19:03;20.00;92.90
30280;DHT22;17097;50.916;5.344;2023-06-14T03:21:29;20.00;93.40
30280;DHT22;17097;50.916;5.344;2023-06-14T03:23:58;20.10;93.60
30280;DHT22;17097;50.916;5.344;2023-06-14T03:26:23;20.00;93.70
30280;DHT22;17097;50.916;5.344;2023-06-14T03:28:50;20.00;94.00
30280;DHT22;17097;50.916;5.344;2023-06-14T03:31:16;20.00;94.20
30280;DHT22;17097;50.916;5.344;2023-06-14T03:33:45;20.00;93.90
30280;DHT22;17097;50.916;5.344;2023-06-14T03:36:11;20.00;94.30
30280;DHT22;17097;50.916;5.344;2023-06-14T03:38:37;19.90;94.70
30280;DHT22;17097;50.916;5.344;2023-06-14T03:41:03;19.90;94.80
30280;DHT22;17097;50.916;5.344;2023-06-14T03:43:29;19.90;95.30
30280;DHT22;17097;50.916;5.344;2023-06-14T03:45:55;19.80;95.70
30280;DHT22;17097;50.916;5.344;2023-06-14T03:48:21;19.90;96.00
30280;DHT22;17097;50.916;5.344;2023-06-14T03:50:49;19.90;96.20
30280;DHT22;17097;50.916;5.344;2023-06-14T03:53:14;19.80;96.80
30280;DHT22;17097;50.916;5.344;2023-06-14T03:55:43;19.70;97.10
30280;DHT22;17097;50.916;5.344;2023-06-14T03:58:09;19.70;97.50
30280;DHT22;17097;50.916;5.344;2023-06-14T04:00:34;19.80;97.70
30280;DHT22;17097;50.916;5.344;2023-06-14T04:03:03;19.80;98.30
30280;DHT22;17097;50.916;5.344;2023-06-14T04:05:30;19.80;98.40
30280;DHT22;17097;50.916;5.344;2023-06-14T04:07:57;19.80;98.60
30280;DHT22;17097;50.916;5.344;2023-06-14T04:10:26;19.80;98.80
30280;DHT22;17097;50.916;5.344;2023-06-14T04:12:52;19.90;98.90
30280;DHT22;17097;50.916;5.344;2023-06-14T04:15:18;19.90;98.80
30280;DHT22;17097;50.916;5.344;2023-06-14T04:17:44;19.90;98.80
30280;DHT22;17097;50.916;5.344;2023-06-14T04:20:10;19.90;98.90
30280;DHT22;17097;50.916;5.344;2023-06-14T04:22:36;19.90;98.90
30280;DHT22;17097;50.916;5.344;2023-06-14T04:25:05;19.90;99.10
30280;DHT22;17097;50.916;5.344;2023-06-14T04:27:31;19.90;99.30
30280;DHT22;17097;50.916;5.344;2023-06-14T04:30:01;20.00;99.30
30280;DHT22;17097;50.916;5.344;2023-06-14T04:32:28;20.00;99.50
30280;DHT22;17097;50.916;5.344;2023-06-14T04:34:58;20.00;99.80
30280;DHT22;17097;50.916;5.344;2023-06-14T04:37:24;20.00;99.90
30280;DHT22;17097;50.916;5.344;2023-06-14T04:39:51;20.00;99.90
30280;DHT22;17097;50.916;5.344;2023-06-14T04:42:17;20.00;99.90
30280;DHT22;17097;50.916;5.344;2023-06-14T04:44:46;20.00;99.90
30280;DHT22;17097;50.916;5.344;2023-06-14T04:47:13;20.10;99.90
30280;DHT22;17097;50.916;5.344;2023-06-14T04:49:39;20.20;99.90
30280;DHT22;17097;50.916;5.344;2023-06-14T04:52:06;20.20;99.90
30280;DHT22;17097;50.916;5.344;2023-06-14T04:54:32;20.30;99.90
30280;DHT22;17097;50.916;5.344;2023-06-14T04:56:59;20.40;99.90
30280;DHT22;17097;50.916;5.344;2023-06-14T04:59:25;20.40;99.80
30280;DHT22;17097;50.916;5.344;2023-06-14T05:01:51;20.40;99.80
30280;DHT22;17097;50.916;5.344;2023-06-14T05:04:19;20.50;99.70
30280;DHT22;17097;50.916;5.344;2023-06-14T05:06:46;20.50;99.90
30280;DHT22;17097;50.916;5.344;2023-06-14T05:09:15;20.60;99.60
30280;DHT22;17097;50.916;5.344;2023-06-14T05:11:42;20.60;99.90
30280;DHT22;17097;50.916;5.344;2023-06-14T05:14:10;20.60;99.90
30280;DHT22;17097;50.916;5.344;2023-06-14T05:16:35;20.70;99.80
30280;DHT22;17097;50.916;5.344;2023-06-14T05:19:02;20.80;99.90
30280;DHT22;17097;50.916;5.344;2023-06-14T05:21:29;20.80;99.90
30280;DHT22;17097;50.916;5.344;2023-06-14T05:23:59;20.80;99.90
30280;DHT22;17097;50.916;5.344;2023-06-14T05:26:25;20.90;99.80
30280;DHT22;17097;50.916;5.344;2023-06-14T05:28:55;20.90;99.70
30280;DHT22;17097;50.916;5.344;2023-06-14T05:31:24;20.90;99.90
30280;DHT22;17097;50.916;5.344;2023-06-14T05:33:53;20.90;99.90
30280;DHT22;17097;50.916;5.344;2023-06-14T05:36:20;20.90;99.90
30280;DHT22;17097;50.916;5.344;2023-06-14T05:38:49;21.00;99.90
30280;DHT22;17097;50.916;5.344;2023-06-14T05:41:16;21.10;99.90
30280;DHT22;17097;50.916;5.344;2023-06-14T05:43:42;21.10;99.90
30280;DHT22;17097;50.916;5.344;2023-06-14T05:46:08;21.20;99.90
30280;DHT22;17097;50.916;5.344;2023-06-14T05:48:33;21.30;99.90
30280;DHT22;17097;50.916;5.344;2023-06-14T05:50:59;21.40;99.70
30280;DHT22;17097;50.916;5.344;2023-06-14T05:53:25;21.50;99.70
30280;DHT22;17097;50.916;5.344;2023-06-14T05:55:53;21.60;99.40
30280;DHT22;17097;50.916;5.344;2023-06-14T05:58:20;21.60;99.40
30280;DHT22;17097;50.916;5.344;2023-06-14T06:00:46;21.70;99.50
30280;DHT22;17097;50.916;5.344;2023-06-14T06:03:12;21.70;99.70
30280;DHT22;17097;50.916;5.344;2023-06-14T06:05:38;21.90;98.90
30280;DHT22;17097;50.916;5.344;2023-06-14T06:08:04;22.00;98.10
30280;DHT22;17097;50.916;5.344;2023-06-14T06:10:30;22.10;97.80
30280;DHT22;17097;50.916;5.344;2023-06-14T06:12:56;22.00;97.70
30280;DHT22;17097;50.916;5.344;2023-06-14T06:15:22;22.20;97.00
30280;DHT22;17097;50.916;5.344;2023-06-14T06:17:50;22.40;96.70
30280;DHT22;17097;50.916;5.344;2023-06-14T06:20:16;22.40;96.80
30280;DHT22;17097;50.916;5.344;2023-06-14T06:22:42;22.40;97.00
30280;DHT22;17097;50.916;5.344;2023-06-14T06:25:08;22.40;96.60
30280;DHT22;17097;50.916;5.344;2023-06-14T06:27:34;22.50;96.50
30280;DHT22;17097;50.916;5.344;2023-06-14T06:30:03;22.60;96.40
30280;DHT22;17097;50.916;5.344;2023-06-14T06:32:28;22.80;96.40
30280;DHT22;17097;50.916;5.344;2023-06-14T06:34:55;22.90;95.50
30280;DHT22;17097;50.916;5.344;2023-06-14T06:37:20;22.90;95.50
30280;DHT22;17097;50.916;5.344;2023-06-14T06:39:47;23.00;95.10
30280;DHT22;17097;50.916;5.344;2023-06-14T06:42:15;23.10;95.70
30280;DHT22;17097;50.916;5.344;2023-06-14T06:44:41;23.10;95.20
30280;DHT22;17097;50.916;5.344;2023-06-14T06:47:07;23.20;95.00
30280;DHT22;17097;50.916;5.344;2023-06-14T06:49:33;23.40;94.30
30280;DHT22;17097;50.916;5.344;2023-06-14T06:52:06;23.60;93.00
30280;DHT22;17097;50.916;5.344;2023-06-14T06:54:32;23.80;92.40
30280;DHT22;17097;50.916;5.344;2023-06-14T06:56:58;23.80;92.10
30280;DHT22;17097;50.916;5.344;2023-06-14T06:59:24;23.90;91.40
30280;DHT22;17097;50.916;5.344;2023-06-14T07:01:53;24.00;91.40
30280;DHT22;17097;50.916;5.344;2023-06-14T07:04:19;24.00;91.00
30280;DHT22;17097;50.916;5.344;2023-06-14T07:06:46;24.10;90.40
30280;DHT22;17097;50.916;5.344;2023-06-14T07:09:12;24.10;87.30
30280;DHT22;17097;50.916;5.344;2023-06-14T07:11:39;24.20;84.20
30280;DHT22;17097;50.916;5.344;2023-06-14T07:14:05;24.30;81.50
30280;DHT22;17097;50.916;5.344;2023-06-14T07:16:32;24.40;80.10
30280;DHT22;17097;50.916;5.344;2023-06-14T07:18:58;24.40;80.20
30280;DHT22;17097;50.916;5.344;2023-06-14T07:21:26;24.40;80.40
30280;DHT22;17097;50.916;5.344;2023-06-14T07:23:53;24.40;81.10
30280;DHT22;17097;50.916;5.344;2023-06-14T07:26:20;24.40;81.90
30280;DHT22;17097;50.916;5.344;2023-06-14T07:28:48;24.50;83.50
30280;DHT22;17097;50.916;5.344;2023-06-14T07:31:17;24.60;81.40
30280;DHT22;17097;50.916;5.344;2023-06-14T07:33:47;24.80;81.30
30280;DHT22;17097;50.916;5.344;2023-06-14T07:36:13;24.90;78.60
30280;DHT22;17097;50.916;5.344;2023-06-14T07:38:39;25.00;76.60
30280;DHT22;17097;50.916;5.344;2023-06-14T07:41:06;25.20;75.00
30280;DHT22;17097;50.916;5.344;2023-06-14T07:43:32;25.20;75.90
30280;DHT22;17097;50.916;5.344;2023-06-14T07:45:58;25.50;74.20
30280;DHT22;17097;50.916;5.344;2023-06-14T07:48:24;25.50;74.50
30280;DHT22;17097;50.916;5.344;2023-06-14T07:50:50;25.70;71.00
30280;DHT22;17097;50.916;5.344;2023-06-14T07:53:16;25.80;68.50
30280;DHT22;17097;50.916;5.344;2023-06-14T07:55:42;25.80;68.80
30280;DHT22;17097;50.916;5.344;2023-06-14T07:58:09;25.70;70.30
30280;DHT22;17097;50.916;5.344;2023-06-14T08:00:36;25.80;71.40
30280;DHT22;17097;50.916;5.344;2023-06-14T08:03:01;25.80;69.60
30280;DHT22;17097;50.916;5.344;2023-06-14T08:05:28;25.90;70.20
30280;DHT22;17097;50.916;5.344;2023-06-14T08:07:55;25.90;68.40
30280;DHT22;17097;50.916;5.344;2023-06-14T08:10:21;26.10;69.20
30280;DHT22;17097;50.916;5.344;2023-06-14T08:12:47;26.20;68.40
30280;DHT22;17097;50.916;5.344;2023-06-14T08:15:14;26.30;67.00
30280;DHT22;17097;50.916;5.344;2023-06-14T08:17:40;26.50;66.50
30280;DHT22;17097;50.916;5.344;2023-06-14T08:20:06;26.50;66.40
30280;DHT22;17097;50.916;5.344;2023-06-14T08:22:35;26.70;66.10
30280;DHT22;17097;50.916;5.344;2023-06-14T08:25:04;26.70;66.20
30280;DHT22;17097;50.916;5.344;2023-06-14T08:27:30;26.70;66.90
30280;DHT22;17097;50.916;5.344;2023-06-14T08:29:57;26.80;64.90
30280;DHT22;17097;50.916;5.344;2023-06-14T08:32:25;27.00;64.10
30280;DHT22;17097;50.916;5.344;2023-06-14T08:34:51;26.90;64.00
30280;DHT22;17097;50.916;5.344;2023-06-14T08:37:16;26.90;65.00
30280;DHT22;17097;50.916;5.344;2023-06-14T08:39:42;27.10;65.50
30280;DHT22;17097;50.916;5.344;2023-06-14T08:42:09;27.20;64.20
30280;DHT22;17097;50.916;5.344;2023-06-14T08:44:36;27.20;62.40
30280;DHT22;17097;50.916;5.344;2023-06-14T08:47:02;27.20;62.30
30280;DHT22;17097;50.916;5.344;2023-06-14T08:49:29;27.30;63.40
30280;DHT22;17097;50.916;5.344;2023-06-14T08:52:00;27.50;63.30
30280;DHT22;17097;50.916;5.344;2023-06-14T08:54:29;27.70;60.10
30280;DHT22;17097;50.916;5.344;2023-06-14T08:56:58;28.10;62.00
30280;DHT22;17097;50.916;5.344;2023-06-14T08:59:27;28.60;58.70
30280;DHT22;17097;50.916;5.344;2023-06-14T09:01:54;29.10;56.80
30280;DHT22;17097;50.916;5.344;2023-06-14T09:04:21;29.70;56.50
30280;DHT22;17097;50.916;5.344;2023-06-14T09:06:55;30.30;57.20
30280;DHT22;17097;50.916;5.344;2023-06-14T09:09:21;30.90;53.90
30280;DHT22;17097;50.916;5.344;2023-06-14T09:11:51;31.30;52.40
30280;DHT22;17097;50.916;5.344;2023-06-14T09:14:21;31.60;49.60
30280;DHT22;17097;50.916;5.344;2023-06-14T09:16:47;31.80;47.40
30280;DHT22;17097;50.916;5.344;2023-06-14T09:19:22;32.00;48.80
30280;DHT22;17097;50.916;5.344;2023-06-14T09:21:51;32.40;48.10
30280;DHT22;17097;50.916;5.344;2023-06-14T09:24:18;32.50;46.80
30280;DHT22;17097;50.916;5.344;2023-06-14T09:26:47;32.60;46.80
30280;DHT22;17097;50.916;5.344;2023-06-14T09:29:12;33.00;47.50
30280;DHT22;17097;50.916;5.344;2023-06-14T09:31:39;33.10;47.70
30280;DHT22;17097;50.916;5.344;2023-06-14T09:34:05;33.30;46.10
30280;DHT22;17097;50.916;5.344;2023-06-14T09:36:32;33.10;45.20
30280;DHT22;17097;50.916;5.344;2023-06-14T09:39:01;33.00;44.80
30280;DHT22;17097;50.916;5.344;2023-06-14T09:41:38;33.20;46.30
30280;DHT22;17097;50.916;5.344;2023-06-14T09:44:09;33.50;45.20
30280;DHT22;17097;50.916;5.344;2023-06-14T09:46:35;33.50;45.40
30280;DHT22;17097;50.916;5.344;2023-06-14T09:49:05;33.50;43.40
30280;DHT22;17097;50.916;5.344;2023-06-14T09:51:31;33.60;43.90
30280;DHT22;17097;50.916;5.344;2023-06-14T09:54:03;34.00;44.10
30280;DHT22;17097;50.916;5.344;2023-06-14T09:56:42;34.10;42.60
30280;DHT22;17097;50.916;5.344;2023-06-14T09:59:10;34.00;43.50
30280;DHT22;17097;50.916;5.344;2023-06-14T10:01:48;34.10;42.30
30280;DHT22;17097;50.916;5.344;2023-06-14T10:04:18;34.30;41.70
30280;DHT22;17097;50.916;5.344;2023-06-14T10:06:47;34.50;41.50
30280;DHT22;17097;50.916;5.344;2023-06-14T10:09:13;34.50;40.90
30280;DHT22;17097;50.916;5.344;2023-06-14T10:11:40;34.70;40.80
30280;DHT22;17097;50.916;5.344;2023-06-14T10:14:10;34.90;41.50
30280;DHT22;17097;50.916;5.344;2023-06-14T10:16:42;34.90;40.50
30280;DHT22;17097;50.916;5.344;2023-06-14T10:19:29;34.80;41.80
30280;DHT22;17097;50.916;5.344;2023-06-14T10:24:58;34.80;41.00
30280;DHT22;17097;50.916;5.344;2023-06-14T10:27:24;34.70;41.90
30280;DHT22;17097;50.916;5.344;2023-06-14T10:32:20;34.80;39.60
30280;DHT22;17097;50.916;5.344;2023-06-14T10:34:49;35.00;42.00
30280;DHT22;17097;50.916;5.344;2023-06-14T10:37:21;34.90;39.50
30280;DHT22;17097;50.916;5.344;2023-06-14T10:39:46;34.90;40.50
30280;DHT22;17097;50.916;5.344;2023-06-14T10:42:13;34.80;41.20
30280;DHT22;17097;50.916;5.344;2023-06-14T10:44:43;34.80;40.60
30280;DHT22;17097;50.916;5.344;2023-06-14T10:47:21;35.10;39.70
30280;DHT22;17097;50.916;5.344;2023-06-14T10:49:53;35.20;39.60
30280;DHT22;17097;50.916;5.344;2023-06-14T10:52:27;35.10;40.00
30280;DHT22;17097;50.916;5.344;2023-06-14T10:57:57;35.30;39.70
30280;DHT22;17097;50.916;5.344;2023-06-14T11:00:29;35.50;39.70
30280;DHT22;17097;50.916;5.344;2023-06-14T11:03:25;35.50;39.60
30280;DHT22;17097;50.916;5.344;2023-06-14T11:05:58;35.60;40.70
30280;DHT22;17097;50.916;5.344;2023-06-14T11:08:39;35.40;40.10
30280;DHT22;17097;50.916;5.344;2023-06-14T11:11:07;35.50;39.30
30280;DHT22;17097;50.916;5.344;2023-06-14T11:13:33;35.30;40.20
30280;DHT22;17097;50.916;5.344;2023-06-14T11:15:59;35.20;39.20
30280;DHT22;17097;50.916;5.344;2023-06-14T11:18:25;35.20;39.60
30280;DHT22;17097;50.916;5.344;2023-06-14T11:20:55;35.00;39.70
30280;DHT22;17097;50.916;5.344;2023-06-14T11:23:21;34.70;39.50
30280;DHT22;17097;50.916;5.344;2023-06-14T11:25:52;34.40;39.60
30280;DHT22;17097;50.916;5.344;2023-06-14T11:28:17;34.30;39.50
30280;DHT22;17097;50.916;5.344;2023-06-14T11:30:48;34.40;38.70
30280;DHT22;17097;50.916;5.344;2023-06-14T11:33:18;34.50;37.80
30280;DHT22;17097;50.916;5.344;2023-06-14T11:35:44;34.60;38.80
30280;DHT22;17097;50.916;5.344;2023-06-14T11:38:11;34.50;38.40
30280;DHT22;17097;50.916;5.344;2023-06-14T11:40:38;34.40;37.50
30280;DHT22;17097;50.916;5.344;2023-06-14T11:43:04;34.50;38.20
30280;DHT22;17097;50.916;5.344;2023-06-14T11:45:30;34.60;37.50
30280;DHT22;17097;50.916;5.344;2023-06-14T11:47:57;34.60;37.10
30280;DHT22;17097;50.916;5.344;2023-06-14T11:50:24;34.60;36.40
30280;DHT22;17097;50.916;5.344;2023-06-14T11:52:57;34.60;36.40
30280;DHT22;17097;50.916;5.344;2023-06-14T11:55:25;34.50;36.10
30280;DHT22;17097;50.916;5.344;2023-06-14T11:57:54;34.30;37.30
30280;DHT22;17097;50.916;5.344;2023-06-14T12:00:27;34.30;37.00
30280;DHT22;17097;50.916;5.344;2023-06-14T12:02:54;34.50;37.40
30280;DHT22;17097;50.916;5.344;2023-06-14T12:05:26;34.40;36.90
30280;DHT22;17097;50.916;5.344;2023-06-14T12:08:02;34.70;35.90
30280;DHT22;17097;50.916;5.344;2023-06-14T12:10:29;34.70;35.90
30280;DHT22;17097;50.916;5.344;2023-06-14T12:12:59;34.70;35.30
30280;DHT22;17097;50.916;5.344;2023-06-14T12:15:28;34.60;35.90
30280;DHT22;17097;50.916;5.344;2023-06-14T12:17:55;34.50;36.50
30280;DHT22;17097;50.916;5.344;2023-06-14T12:20:20;34.60;35.90
30280;DHT22;17097;50.916;5.344;2023-06-14T12:22:54;34.70;34.90
30280;DHT22;17097;50.916;5.344;2023-06-14T12:25:33;34.70;35.90
30280;DHT22;17097;50.916;5.344;2023-06-14T12:28:09;34.80;36.20
30280;DHT22;17097;50.916;5.344;2023-06-14T12:30:36;34.70;35.80
30280;DHT22;17097;50.916;5.344;2023-06-14T12:33:05;34.40;36.90
30280;DHT22;17097;50.916;5.344;2023-06-14T12:35:35;34.20;37.00
30280;DHT22;17097;50.916;5.344;2023-06-14T12:38:01;34.30;36.60
30280;DHT22;17097;50.916;5.344;2023-06-14T12:40:29;34.20;38.10
30280;DHT22;17097;50.916;5.344;2023-06-14T12:42:54;34.00;37.00
30280;DHT22;17097;50.916;5.344;2023-06-14T12:45:20;34.10;37.60
30280;DHT22;17097;50.916;5.344;2023-06-14T12:47:46;34.10;37.40
30280;DHT22;17097;50.916;5.344;2023-06-14T12:50:12;34.10;37.50
30280;DHT22;17097;50.916;5.344;2023-06-14T12:52:38;34.20;36.60
30280;DHT22;17097;50.916;5.344;2023-06-14T12:55:09;34.40;36.80
30280;DHT22;17097;50.916;5.344;2023-06-14T12:57:35;34.40;37.30
30280;DHT22;17097;50.916;5.344;2023-06-14T13:00:02;34.40;39.20
30280;DHT22;17097;50.916;5.344;2023-06-14T13:02:28;34.40;37.80
30280;DHT22;17097;50.916;5.344;2023-06-14T13:04:54;34.40;36.80
30280;DHT22;17097;50.916;5.344;2023-06-14T13:07:20;34.50;37.80
30280;DHT22;17097;50.916;5.344;2023-06-14T13:09:46;34.10;37.00
30280;DHT22;17097;50.916;5.344;2023-06-14T13:12:14;34.30;38.10
30280;DHT22;17097;50.916;5.344;2023-06-14T13:14:40;34.40;38.20
30280;DHT22;17097;50.916;5.344;2023-06-14T13:17:08;34.30;38.00
30280;DHT22;17097;50.916;5.344;2023-06-14T13:19:36;34.40;37.90
30280;DHT22;17097;50.916;5.344;2023-06-14T13:22:03;34.30;37.10
30280;DHT22;17097;50.916;5.344;2023-06-14T13:24:29;34.30;38.30
30280;DHT22;17097;50.916;5.344;2023-06-14T13:26:58;34.20;38.90
30280;DHT22;17097;50.916;5.344;2023-06-14T13:29:24;34.30;37.40
30280;DHT22;17097;50.916;5.344;2023-06-14T13:31:51;34.20;38.20
30280;DHT22;17097;50.916;5.344;2023-06-14T13:34:17;34.20;38.00
30280;DHT22;17097;50.916;5.344;2023-06-14T13:36:42;34.20;37.90
30280;DHT22;17097;50.916;5.344;2023-06-14T13:39:08;34.30;38.10
30280;DHT22;17097;50.916;5.344;2023-06-14T13:41:34;34.40;38.80
30280;DHT22;17097;50.916;5.344;2023-06-14T13:44:01;34.40;37.70
30280;DHT22;17097;50.916;5.344;2023-06-14T13:46:29;34.60;38.10
30280;DHT22;17097;50.916;5.344;2023-06-14T13:48:57;34.60;37.70
30280;DHT22;17097;50.916;5.344;2023-06-14T13:51:23;34.50;38.20
30280;DHT22;17097;50.916;5.344;2023-06-14T13:53:49;34.50;38.50
30280;DHT22;17097;50.916;5.344;2023-06-14T13:56:18;34.50;38.10
30280;DHT22;17097;50.916;5.344;2023-06-14T13:58:44;34.30;37.90
30280;DHT22;17097;50.916;5.344;2023-06-14T14:01:10;34.30;37.40
30280;DHT22;17097;50.916;5.344;2023-06-14T14:03:37;34.40;38.20
30280;DHT22;17097;50.916;5.344;2023-06-14T14:06:04;34.20;38.20
30280;DHT22;17097;50.916;5.344;2023-06-14T14:08:32;34.30;37.70
30280;DHT22;17097;50.916;5.344;2023-06-14T14:11:01;34.30;38.60
30280;DHT22;17097;50.916;5.344;2023-06-14T14:13:26;34.00;37.30
30280;DHT22;17097;50.916;5.344;2023-06-14T14:15:52;33.90;39.60
30280;DHT22;17097;50.916;5.344;2023-06-14T14:18:19;33.80;39.30
30280;DHT22;17097;50.916;5.344;2023-06-14T14:20:46;33.80;38.10
30280;DHT22;17097;50.916;5.344;2023-06-14T14:23:12;33.90;38.20
30280;DHT22;17097;50.916;5.344;2023-06-14T14:25:40;34.00;38.20
30280;DHT22;17097;50.916;5.344;2023-06-14T14:28:06;34.00;38.00
30280;DHT22;17097;50.916;5.344;2023-06-14T14:30:34;33.90;38.40
30280;DHT22;17097;50.916;5.344;2023-06-14T14:33:00;34.00;37.70
30280;DHT22;17097;50.916;5.344;2023-06-14T14:35:28;34.00;37.90
30280;DHT22;17097;50.916;5.344;2023-06-14T14:37:56;33.90;39.30
30280;DHT22;17097;50.916;5.344;2023-06-14T14:40:26;34.00;39.00
30280;DHT22;17097;50.916;5.344;2023-06-14T14:42:52;33.80;37.10
30280;DHT22;17097;50.916;5.344;2023-06-14T14:45:20;33.60;37.40
30280;DHT22;17097;50.916;5.344;2023-06-14T14:47:46;33.60;39.80
30280;DHT22;17097;50.916;5.344;2023-06-14T14:50:12;33.30;38.00
30280;DHT22;17097;50.916;5.344;2023-06-14T14:52:38;33.40;37.40
30280;DHT22;17097;50.916;5.344;2023-06-14T14:55:04;33.40;38.70
30280;DHT22;17097;50.916;5.344;2023-06-14T14:57:33;33.40;39.20
30280;DHT22;17097;50.916;5.344;2023-06-14T15:00:01;33.10;37.40
30280;DHT22;17097;50.916;5.344;2023-06-14T15:02:27;32.90;37.90
30280;DHT22;17097;50.916;5.344;2023-06-14T15:04:53;32.90;37.50
30280;DHT22;17097;50.916;5.344;2023-06-14T15:07:21;32.70;38.90
30280;DHT22;17097;50.916;5.344;2023-06-14T15:09:47;32.70;38.40
30280;DHT22;17097;50.916;5.344;2023-06-14T15:12:16;32.90;39.50
30280;DHT22;17097;50.916;5.344;2023-06-14T15:14:42;33.00;39.10
30280;DHT22;17097;50.916;5.344;2023-06-14T15:17:10;33.10;40.20
30280;DHT22;17097;50.916;5.344;2023-06-14T15:19:36;33.20;40.30
30280;DHT22;17097;50.916;5.344;2023-06-14T15:22:04;32.90;39.50
30280;DHT22;17097;50.916;5.344;2023-06-14T15:24:30;32.90;40.00
30280;DHT22;17097;50.916;5.344;2023-06-14T15:26:58;32.80;39.70
30280;DHT22;17097;50.916;5.344;2023-06-14T15:29:24;32.80;40.10
30280;DHT22;17097;50.916;5.344;2023-06-14T15:31:50;32.70;40.20
30280;DHT22;17097;50.916;5.344;2023-06-14T15:34:18;32.70;40.10
30280;DHT22;17097;50.916;5.344;2023-06-14T15:36:45;32.40;40.30
30280;DHT22;17097;50.916;5.344;2023-06-14T15:39:11;32.40;40.30
30280;DHT22;17097;50.916;5.344;2023-06-14T15:41:37;32.20;39.60